sensor_id;sensor_type;location;lat;lon;timestamp;pressure;altitude;pressure_sealevel;temperature;humidity
19736;BME280;32064;49.310;8.646;2023-05-23T00:02:07;100319.38;;;22.13;72.27
19736;BME280;32064;49.310;8.646;2023-05-23T00:04:33;100316.41;;;22.08;71.99
19736;BME280;32064;49.310;8.646;2023-05-23T00:07:02;100323.16;;;22.04;72.74
19736;BME280;32064;49.310;8.646;2023-05-23T00:09:27;100323.72;;;21.99;72.83
19736;BME280;32064;49.310;8.646;2023-05-23T00:11:52;100327.88;;;22.02;72.92
19736;BME280;32064;49.310;8.646;2023-05-23T00:14:18;100325.47;;;22.07;72.87
19736;BME280;32064;49.310;8.646;2023-05-23T00:16:44;100320.94;;;22.07;72.61
19736;BME280;32064;49.310;8.646;2023-05-23T00:19:11;100328.97;;;22.07;72.57
19736;BME280;32064;49.310;8.646;2023-05-23T00:21:39;100338.50;;;22.10;72.80
19736;BME280;32064;49.310;8.646;2023-05-23T00:24:05;100334.81;;;22.11;71.91
19736;BME280;32064;49.310;8.646;2023-05-23T00:26:31;100332.16;;;22.11;72.49
19736;BME280;32064;49.310;8.646;2023-05-23T00:28:57;100335.75;;;22.03;72.41
19736;BME280;32064;49.310;8.646;2023-05-23T00:31:23;100336.47;;;21.97;72.71
19736;BME280;32064;49.310;8.646;2023-05-23T00:33:48;100330.19;;;21.90;72.06
19736;BME280;32064;49.310;8.646;2023-05-23T00:36:13;100336.44;;;21.82;72.43
19736;BME280;32064;49.310;8.646;2023-05-23T00:38:39;100338.28;;;21.82;73.39
19736;BME280;32064;49.310;8.646;2023-05-23T00:41:04;100333.66;;;21.75;73.55
19736;BME280;32064;49.310;8.646;2023-05-23T00:43:30;100341.03;;;21.73;72.97
19736;BME280;32064;49.310;8.646;2023-05-23T00:45:56;100329.03;;;21.69;73.06
19736;BME280;32064;49.310;8.646;2023-05-23T00:48:22;100332.91;;;21.67;73.45
19736;BME280;32064;49.310;8.646;2023-05-23T00:50:48;100338.81;;;21.62;73.80
19736;BME280;32064;49.310;8.646;2023-05-23T00:53:14;100327.47;;;21.60;73.72
19736;BME280;32064;49.310;8.646;2023-05-23T00:55:41;100335.31;;;21.62;73.42
19736;BME280;32064;49.310;8.646;2023-05-23T00:58:07;100330.66;;;21.56;73.01
19736;BME280;32064;49.310;8.646;2023-05-23T01:00:32;100337.06;;;21.55;73.60
19736;BME280;32064;49.310;8.646;2023-05-23T01:03:00;100340.25;;;21.50;73.56
19736;BME280;32064;49.310;8.646;2023-05-23T01:05:25;100341.66;;;21.46;73.67
19736;BME280;32064;49.310;8.646;2023-05-23T01:07:53;100339.28;;;21.43;73.82
19736;BME280;32064;49.310;8.646;2023-05-23T01:10:22;100334.31;;;21.40;73.47
19736;BME280;32064;49.310;8.646;2023-05-23T01:13:09;100334.84;;;21.35;74.38
19736;BME280;32064;49.310;8.646;2023-05-23T01:15:49;100336.84;;;21.33;74.25
19736;BME280;32064;49.310;8.646;2023-05-23T01:18:22;100342.41;;;21.32;74.19
19736;BME280;32064;49.310;8.646;2023-05-23T01:20:51;100336.91;;;21.25;74.70
19736;BME280;32064;49.310;8.646;2023-05-23T01:23:45;100338.28;;;21.21;74.78
19736;BME280;32064;49.310;8.646;2023-05-23T01:26:31;100337.78;;;21.17;74.53
19736;BME280;32064;49.310;8.646;2023-05-23T01:29:21;100353.22;;;21.15;74.78
19736;BME280;32064;49.310;8.646;2023-05-23T01:31:51;100339.84;;;21.15;74.95
19736;BME280;32064;49.310;8.646;2023-05-23T01:34:17;100341.84;;;21.13;74.48
19736;BME280;32064;49.310;8.646;2023-05-23T01:36:43;100347.56;;;21.10;74.56
19736;BME280;32064;49.310;8.646;2023-05-23T01:39:09;100347.91;;;21.07;74.48
19736;BME280;32064;49.310;8.646;2023-05-23T01:41:35;100350.22;;;21.10;74.69
19736;BME280;32064;49.310;8.646;2023-05-23T01:44:01;100357.78;;;21.06;75.09
19736;BME280;32064;49.310;8.646;2023-05-23T01:46:28;100354.44;;;21.04;74.89
19736;BME280;32064;49.310;8.646;2023-05-23T01:48:56;100352.28;;;21.00;74.97
19736;BME280;32064;49.310;8.646;2023-05-23T01:51:22;100356.50;;;20.94;75.23
19736;BME280;32064;49.310;8.646;2023-05-23T01:53:49;100357.69;;;20.92;75.30
19736;BME280;32064;49.310;8.646;2023-05-23T01:56:15;100367.75;;;20.90;75.01
19736;BME280;32064;49.310;8.646;2023-05-23T01:58:41;100366.91;;;20.89;75.15
19736;BME280;32064;49.310;8.646;2023-05-23T02:01:08;100361.91;;;20.86;74.96
19736;BME280;32064;49.310;8.646;2023-05-23T02:03:34;100370.47;;;20.81;75.32
19736;BME280;32064;49.310;8.646;2023-05-23T02:05:59;100375.66;;;20.75;75.58
19736;BME280;32064;49.310;8.646;2023-05-23T02:08:25;100378.34;;;20.75;75.77
19736;BME280;32064;49.310;8.646;2023-05-23T02:10:50;100372.97;;;20.75;75.75
19736;BME280;32064;49.310;8.646;2023-05-23T02:13:16;100376.00;;;20.72;75.94
19736;BME280;32064;49.310;8.646;2023-05-23T02:15:41;100377.84;;;20.71;75.45
19736;BME280;32064;49.310;8.646;2023-05-23T02:18:06;100382.53;;;20.69;75.73
19736;BME280;32064;49.310;8.646;2023-05-23T02:20:32;100382.38;;;20.71;75.44
19736;BME280;32064;49.310;8.646;2023-05-23T02:22:57;100387.72;;;20.71;75.51
19736;BME280;32064;49.310;8.646;2023-05-23T02:25:23;100383.56;;;20.68;75.42
19736;BME280;32064;49.310;8.646;2023-05-23T02:27:48;100385.56;;;20.66;75.50
19736;BME280;32064;49.310;8.646;2023-05-23T02:30:13;100383.91;;;20.65;75.71
19736;BME280;32064;49.310;8.646;2023-05-23T02:32:39;100389.41;;;20.63;75.21
19736;BME280;32064;49.310;8.646;2023-05-23T02:35:04;100390.78;;;20.59;75.77
19736;BME280;32064;49.310;8.646;2023-05-23T02:37:30;100389.28;;;20.57;75.61
19736;BME280;32064;49.310;8.646;2023-05-23T02:39:55;100389.47;;;20.55;75.60
19736;BME280;32064;49.310;8.646;2023-05-23T02:42:21;100395.13;;;20.52;75.95
19736;BME280;32064;49.310;8.646;2023-05-23T02:44:46;100389.13;;;20.50;75.97
19736;BME280;32064;49.310;8.646;2023-05-23T02:47:12;100387.78;;;20.46;75.72
19736;BME280;32064;49.310;8.646;2023-05-23T02:49:37;100387.47;;;20.41;76.33
19736;BME280;32064;49.310;8.646;2023-05-23T02:52:03;100394.66;;;20.40;75.72
19736;BME280;32064;49.310;8.646;2023-05-23T02:54:28;100398.19;;;20.41;76.08
19736;BME280;32064;49.310;8.646;2023-05-23T02:56:54;100392.50;;;20.36;75.87
19736;BME280;32064;49.310;8.646;2023-05-23T02:59:20;100393.84;;;20.32;76.26
19736;BME280;32064;49.310;8.646;2023-05-23T03:01:46;100385.19;;;20.30;76.31
19736;BME280;32064;49.310;8.646;2023-05-23T03:04:12;100397.03;;;20.27;76.50
19736;BME280;32064;49.310;8.646;2023-05-23T03:06:38;100398.03;;;20.26;77.04
19736;BME280;32064;49.310;8.646;2023-05-23T03:09:04;100398.53;;;20.30;75.73
19736;BME280;32064;49.310;8.646;2023-05-23T03:11:30;100387.66;;;20.31;76.18
19736;BME280;32064;49.310;8.646;2023-05-23T03:13:55;100396.50;;;20.32;76.73
19736;BME280;32064;49.310;8.646;2023-05-23T03:16:21;100391.16;;;20.32;76.69
19736;BME280;32064;49.310;8.646;2023-05-23T03:18:47;100406.38;;;20.31;76.85
19736;BME280;32064;49.310;8.646;2023-05-23T03:21:13;100410.19;;;20.37;76.93
19736;BME280;32064;49.310;8.646;2023-05-23T03:23:38;100408.53;;;20.36;77.03
19736;BME280;32064;49.310;8.646;2023-05-23T03:26:03;100422.06;;;20.34;76.55
19736;BME280;32064;49.310;8.646;2023-05-23T03:28:30;100420.22;;;20.35;76.94
19736;BME280;32064;49.310;8.646;2023-05-23T03:30:56;100422.75;;;20.28;77.59
19736;BME280;32064;49.310;8.646;2023-05-23T03:33:22;100408.91;;;20.25;77.67
19736;BME280;32064;49.310;8.646;2023-05-23T03:35:47;100426.25;;;20.29;77.62
19736;BME280;32064;49.310;8.646;2023-05-23T03:38:13;100420.56;;;20.32;78.18
19736;BME280;32064;49.310;8.646;2023-05-23T03:40:38;100421.72;;;20.29;77.72
19736;BME280;32064;49.310;8.646;2023-05-23T03:43:05;100416.22;;;20.31;78.73
19736;BME280;32064;49.310;8.646;2023-05-23T03:45:31;100426.22;;;20.37;78.39
19736;BME280;32064;49.310;8.646;2023-05-23T03:47:57;100424.25;;;20.31;78.94
19736;BME280;32064;49.310;8.646;2023-05-23T03:50:23;100423.75;;;20.35;78.98
19736;BME280;32064;49.310;8.646;2023-05-23T03:52:48;100431.41;;;20.38;78.82
19736;BME280;32064;49.310;8.646;2023-05-23T03:55:14;100430.72;;;20.45;78.54
19736;BME280;32064;49.310;8.646;2023-05-23T03:57:39;100429.72;;;20.54;78.09
19736;BME280;32064;49.310;8.646;2023-05-23T04:00:05;100430.56;;;20.54;78.99
19736;BME280;32064;49.310;8.646;2023-05-23T04:02:36;100431.56;;;20.61;78.30
19736;BME280;32064;49.310;8.646;2023-05-23T04:05:01;100434.53;;;20.67;78.69
19736;BME280;32064;49.310;8.646;2023-05-23T04:07:27;100441.34;;;20.69;77.82
19736;BME280;32064;49.310;8.646;2023-05-23T04:09:52;100442.56;;;20.67;78.13
19736;BME280;32064;49.310;8.646;2023-05-23T04:12:18;100443.06;;;20.70;78.13
19736;BME280;32064;49.310;8.646;2023-05-23T04:14:45;100440.50;;;20.77;78.16
19736;BME280;32064;49.310;8.646;2023-05-23T04:17:11;100433.84;;;20.73;78.24
19736;BME280;32064;49.310;8.646;2023-05-23T04:19:37;100436.00;;;20.69;78.27
19736;BME280;32064;49.310;8.646;2023-05-23T04:22:03;100440.72;;;20.67;78.65
19736;BME280;32064;49.310;8.646;2023-05-23T04:24:28;100451.41;;;20.67;77.96
19736;BME280;32064;49.310;8.646;2023-05-23T04:26:53;100447.41;;;20.63;78.51
19736;BME280;32064;49.310;8.646;2023-05-23T04:29:20;100446.56;;;20.62;78.32
19736;BME280;32064;49.310;8.646;2023-05-23T04:31:46;100447.59;;;20.53;78.00
19736;BME280;32064;49.310;8.646;2023-05-23T04:34:11;100456.13;;;20.57;77.94
19736;BME280;32064;49.310;8.646;2023-05-23T04:36:37;100450.06;;;20.63;77.30
19736;BME280;32064;49.310;8.646;2023-05-23T04:39:04;100445.41;;;20.57;77.39
19736;BME280;32064;49.310;8.646;2023-05-23T04:41:29;100460.97;;;20.53;77.38
19736;BME280;32064;49.310;8.646;2023-05-23T04:43:55;100459.97;;;20.54;76.69
19736;BME280;32064;49.310;8.646;2023-05-23T04:46:22;100461.94;;;20.60;76.29
19736;BME280;32064;49.310;8.646;2023-05-23T04:48:52;100469.78;;;20.70;75.89
19736;BME280;32064;49.310;8.646;2023-05-23T04:51:18;100466.09;;;20.71;75.41
19736;BME280;32064;49.310;8.646;2023-05-23T04:53:46;100471.44;;;20.79;75.90
19736;BME280;32064;49.310;8.646;2023-05-23T04:56:11;100469.41;;;20.81;75.18
19736;BME280;32064;49.310;8.646;2023-05-23T04:58:37;100465.22;;;20.87;75.56
19736;BME280;32064;49.310;8.646;2023-05-23T05:01:04;100466.41;;;20.84;75.07
19736;BME280;32064;49.310;8.646;2023-05-23T05:03:30;100472.53;;;20.93;74.50
19736;BME280;32064;49.310;8.646;2023-05-23T05:05:56;100470.91;;;20.84;74.49
19736;BME280;32064;49.310;8.646;2023-05-23T05:08:22;100477.56;;;20.88;74.59
19736;BME280;32064;49.310;8.646;2023-05-23T05:10:47;100477.44;;;20.81;74.06
19736;BME280;32064;49.310;8.646;2023-05-23T05:13:13;100475.94;;;20.79;74.88
19736;BME280;32064;49.310;8.646;2023-05-23T05:15:38;100487.13;;;20.82;73.87
19736;BME280;32064;49.310;8.646;2023-05-23T05:18:03;100492.00;;;20.79;74.21
19736;BME280;32064;49.310;8.646;2023-05-23T05:20:29;100484.28;;;20.84;74.11
19736;BME280;32064;49.310;8.646;2023-05-23T05:22:55;100495.31;;;20.89;73.47
19736;BME280;32064;49.310;8.646;2023-05-23T05:25:22;100490.44;;;20.93;73.15
19736;BME280;32064;49.310;8.646;2023-05-23T05:27:47;100494.97;;;20.92;72.90
19736;BME280;32064;49.310;8.646;2023-05-23T05:30:12;100498.72;;;21.06;72.27
19736;BME280;32064;49.310;8.646;2023-05-23T05:32:38;100498.63;;;20.91;71.58
19736;BME280;32064;49.310;8.646;2023-05-23T05:35:03;100504.31;;;20.88;70.73
19736;BME280;32064;49.310;8.646;2023-05-23T05:37:29;100500.31;;;20.92;71.04
19736;BME280;32064;49.310;8.646;2023-05-23T05:39:55;100514.34;;;20.86;70.70
19736;BME280;32064;49.310;8.646;2023-05-23T05:42:21;100514.88;;;20.90;70.07
19736;BME280;32064;49.310;8.646;2023-05-23T05:44:46;100522.34;;;20.94;70.41
19736;BME280;32064;49.310;8.646;2023-05-23T05:47:12;100524.19;;;20.94;69.74
19736;BME280;32064;49.310;8.646;2023-05-23T05:49:38;100524.34;;;21.00;69.19
19736;BME280;32064;49.310;8.646;2023-05-23T05:52:05;100510.66;;;20.95;69.59
19736;BME280;32064;49.310;8.646;2023-05-23T05:54:31;100525.00;;;21.02;68.58
19736;BME280;32064;49.310;8.646;2023-05-23T05:56:56;100522.34;;;20.94;67.87
19736;BME280;32064;49.310;8.646;2023-05-23T05:59:22;100535.72;;;20.94;68.20
19736;BME280;32064;49.310;8.646;2023-05-23T06:01:47;100531.03;;;21.04;67.35
19736;BME280;32064;49.310;8.646;2023-05-23T06:04:15;100537.34;;;21.12;67.43
19736;BME280;32064;49.310;8.646;2023-05-23T06:06:41;100528.00;;;21.07;66.68
19736;BME280;32064;49.310;8.646;2023-05-23T06:09:06;100541.22;;;21.09;66.91
19736;BME280;32064;49.310;8.646;2023-05-23T06:11:32;100546.59;;;21.01;67.32
19736;BME280;32064;49.310;8.646;2023-05-23T06:13:57;100546.41;;;21.02;66.80
19736;BME280;32064;49.310;8.646;2023-05-23T06:16:23;100556.59;;;21.15;67.43
19736;BME280;32064;49.310;8.646;2023-05-23T06:18:48;100556.94;;;21.04;66.64
19736;BME280;32064;49.310;8.646;2023-05-23T06:21:14;100563.47;;;21.10;66.62
19736;BME280;32064;49.310;8.646;2023-05-23T06:23:39;100562.56;;;21.25;66.07
19736;BME280;32064;49.310;8.646;2023-05-23T06:26:05;100569.44;;;21.12;65.94
19736;BME280;32064;49.310;8.646;2023-05-23T06:28:36;100575.28;;;21.23;65.83
19736;BME280;32064;49.310;8.646;2023-05-23T06:31:02;100567.56;;;21.37;65.13
19736;BME280;32064;49.310;8.646;2023-05-23T06:33:27;100571.69;;;21.47;65.12
19736;BME280;32064;49.310;8.646;2023-05-23T06:35:53;100579.94;;;21.38;64.89
19736;BME280;32064;49.310;8.646;2023-05-23T06:38:18;100569.25;;;21.38;64.86
19736;BME280;32064;49.310;8.646;2023-05-23T06:40:44;100576.84;;;21.57;64.75
19736;BME280;32064;49.310;8.646;2023-05-23T06:43:09;100571.28;;;21.67;64.38
19736;BME280;32064;49.310;8.646;2023-05-23T06:45:35;100574.78;;;21.67;64.50
19736;BME280;32064;49.310;8.646;2023-05-23T06:48:02;100582.88;;;21.51;64.48
19736;BME280;32064;49.310;8.646;2023-05-23T06:50:28;100593.75;;;21.58;64.51
19736;BME280;32064;49.310;8.646;2023-05-23T06:52:54;100583.47;;;21.38;64.63
19736;BME280;32064;49.310;8.646;2023-05-23T06:55:19;100583.91;;;21.50;64.74
19736;BME280;32064;49.310;8.646;2023-05-23T06:57:45;100599.44;;;21.63;64.63
19736;BME280;32064;49.310;8.646;2023-05-23T07:00:11;100599.19;;;21.72;63.25
19736;BME280;32064;49.310;8.646;2023-05-23T07:02:38;100600.47;;;21.85;63.53
19736;BME280;32064;49.310;8.646;2023-05-23T07:05:03;100597.38;;;21.96;62.80
19736;BME280;32064;49.310;8.646;2023-05-23T07:07:29;100610.19;;;21.86;62.06
19736;BME280;32064;49.310;8.646;2023-05-23T07:09:54;100605.84;;;21.77;62.42
19736;BME280;32064;49.310;8.646;2023-05-23T07:12:19;100614.97;;;21.59;62.36
19736;BME280;32064;49.310;8.646;2023-05-23T07:14:45;100606.94;;;21.59;62.80
19736;BME280;32064;49.310;8.646;2023-05-23T07:17:10;100608.28;;;21.63;62.78
19736;BME280;32064;49.310;8.646;2023-05-23T07:19:36;100613.53;;;21.80;61.96
19736;BME280;32064;49.310;8.646;2023-05-23T07:22:02;100621.38;;;21.89;61.69
19736;BME280;32064;49.310;8.646;2023-05-23T07:24:27;100626.28;;;22.09;61.00
19736;BME280;32064;49.310;8.646;2023-05-23T07:26:53;100617.16;;;22.26;60.88
19736;BME280;32064;49.310;8.646;2023-05-23T07:29:18;100625.09;;;22.42;60.69
19736;BME280;32064;49.310;8.646;2023-05-23T07:31:43;100622.59;;;22.56;60.18
19736;BME280;32064;49.310;8.646;2023-05-23T07:34:09;100626.13;;;22.79;60.51
19736;BME280;32064;49.310;8.646;2023-05-23T07:36:34;100618.69;;;23.04;59.78
19736;BME280;32064;49.310;8.646;2023-05-23T07:39:02;100615.63;;;23.22;58.61
19736;BME280;32064;49.310;8.646;2023-05-23T07:41:28;100625.06;;;23.63;57.98
19736;BME280;32064;49.310;8.646;2023-05-23T07:43:53;100620.19;;;24.24;56.60
19736;BME280;32064;49.310;8.646;2023-05-23T07:46:19;100629.41;;;24.79;56.06
19736;BME280;32064;49.310;8.646;2023-05-23T07:48:46;100626.00;;;25.20;54.20
19736;BME280;32064;49.310;8.646;2023-05-23T07:51:12;100635.03;;;25.41;53.13
19736;BME280;32064;49.310;8.646;2023-05-23T07:53:37;100632.59;;;25.94;51.56
19736;BME280;32064;49.310;8.646;2023-05-23T07:56:05;100632.72;;;25.38;51.34
19736;BME280;32064;49.310;8.646;2023-05-23T07:58:30;100632.47;;;24.76;52.26
19736;BME280;32064;49.310;8.646;2023-05-23T08:00:56;100636.78;;;24.28;52.83
19736;BME280;32064;49.310;8.646;2023-05-23T08:03:22;100633.75;;;23.80;54.49
19736;BME280;32064;49.310;8.646;2023-05-23T08:05:47;100639.59;;;23.68;54.99
19736;BME280;32064;49.310;8.646;2023-05-23T08:08:14;100636.63;;;23.63;55.24
19736;BME280;32064;49.310;8.646;2023-05-23T08:10:39;100636.09;;;23.53;54.32
19736;BME280;32064;49.310;8.646;2023-05-23T08:13:05;100644.06;;;23.46;55.35
19736;BME280;32064;49.310;8.646;2023-05-23T08:15:31;100641.94;;;23.57;55.00
19736;BME280;32064;49.310;8.646;2023-05-23T08:17:58;100637.59;;;23.56;54.77
19736;BME280;32064;49.310;8.646;2023-05-23T08:20:25;100647.59;;;23.47;54.98
19736;BME280;32064;49.310;8.646;2023-05-23T08:22:59;100648.88;;;23.51;54.95
19736;BME280;32064;49.310;8.646;2023-05-23T08:25:25;100646.66;;;23.54;53.84
19736;BME280;32064;49.310;8.646;2023-05-23T08:27:55;100648.31;;;23.56;54.39
19736;BME280;32064;49.310;8.646;2023-05-23T08:30:21;100649.88;;;23.65;54.04
19736;BME280;32064;49.310;8.646;2023-05-23T08:32:47;100656.09;;;23.65;54.42
19736;BME280;32064;49.310;8.646;2023-05-23T08:35:13;100645.72;;;23.62;54.28
19736;BME280;32064;49.310;8.646;2023-05-23T08:37:38;100648.31;;;23.41;53.65
19736;BME280;32064;49.310;8.646;2023-05-23T08:40:06;100648.94;;;23.58;53.69
19736;BME280;32064;49.310;8.646;2023-05-23T08:42:33;100655.66;;;24.13;52.92
19736;BME280;32064;49.310;8.646;2023-05-23T08:44:58;100655.69;;;26.16;49.39
19736;BME280;32064;49.310;8.646;2023-05-23T08:47:24;100651.38;;;26.49;48.95
19736;BME280;32064;49.310;8.646;2023-05-23T08:49:51;100655.47;;;25.63;49.67
19736;BME280;32064;49.310;8.646;2023-05-23T08:52:20;100651.28;;;24.70;50.16
19736;BME280;32064;49.310;8.646;2023-05-23T08:54:47;100647.81;;;24.33;50.94
19736;BME280;32064;49.310;8.646;2023-05-23T08:57:13;100656.97;;;24.02;51.90
19736;BME280;32064;49.310;8.646;2023-05-23T08:59:38;100657.81;;;24.03;51.57
19736;BME280;32064;49.310;8.646;2023-05-23T09:02:07;100656.75;;;24.18;51.06
19736;BME280;32064;49.310;8.646;2023-05-23T09:04:34;100655.38;;;24.08;52.37
19736;BME280;32064;49.310;8.646;2023-05-23T09:07:01;100658.56;;;23.96;51.00
19736;BME280;32064;49.310;8.646;2023-05-23T09:09:27;100653.41;;;23.80;51.19
19736;BME280;32064;49.310;8.646;2023-05-23T09:11:54;100664.47;;;23.70;51.79
19736;BME280;32064;49.310;8.646;2023-05-23T09:14:21;100659.81;;;23.79;51.85
19736;BME280;32064;49.310;8.646;2023-05-23T09:16:46;100664.63;;;23.84;52.38
19736;BME280;32064;49.310;8.646;2023-05-23T09:19:13;100663.72;;;23.77;51.11
19736;BME280;32064;49.310;8.646;2023-05-23T09:21:43;100669.84;;;23.70;52.36
19736;BME280;32064;49.310;8.646;2023-05-23T09:24:09;100667.59;;;23.59;52.21
19736;BME280;32064;49.310;8.646;2023-05-23T09:26:35;100671.75;;;23.62;52.36
19736;BME280;32064;49.310;8.646;2023-05-23T09:29:00;100669.34;;;23.82;51.94
19736;BME280;32064;49.310;8.646;2023-05-23T09:31:31;100668.28;;;24.12;51.60
19736;BME280;32064;49.310;8.646;2023-05-23T09:33:57;100671.53;;;25.43;49.48
19736;BME280;32064;49.310;8.646;2023-05-23T09:36:26;100667.59;;;27.08;46.22
19736;BME280;32064;49.310;8.646;2023-05-23T09:38:53;100668.44;;;27.09;47.31
19736;BME280;32064;49.310;8.646;2023-05-23T09:41:19;100664.25;;;28.43;44.50
19736;BME280;32064;49.310;8.646;2023-05-23T09:43:52;100673.66;;;27.95;44.18
19736;BME280;32064;49.310;8.646;2023-05-23T09:46:20;100669.91;;;26.92;46.11
19736;BME280;32064;49.310;8.646;2023-05-23T09:48:51;100670.47;;;26.40;46.49
19736;BME280;32064;49.310;8.646;2023-05-23T09:51:19;100672.56;;;25.84;46.99
19736;BME280;32064;49.310;8.646;2023-05-23T09:53:48;100671.66;;;25.70;47.76
19736;BME280;32064;49.310;8.646;2023-05-23T09:56:18;100663.44;;;27.26;45.79
19736;BME280;32064;49.310;8.646;2023-05-23T09:58:46;100668.47;;;28.89;43.02
19736;BME280;32064;49.310;8.646;2023-05-23T10:01:12;100671.81;;;28.28;43.53
19736;BME280;32064;49.310;8.646;2023-05-23T10:03:44;100671.50;;;27.52;44.14
19736;BME280;32064;49.310;8.646;2023-05-23T10:06:25;100668.03;;;26.99;44.64
19736;BME280;32064;49.310;8.646;2023-05-23T10:08:58;100679.66;;;26.53;44.31
19736;BME280;32064;49.310;8.646;2023-05-23T10:13:58;100671.41;;;26.00;46.33
19736;BME280;32064;49.310;8.646;2023-05-23T10:16:29;100663.66;;;25.83;46.23
19736;BME280;32064;49.310;8.646;2023-05-23T10:19:02;100672.25;;;25.65;46.61
19736;BME280;32064;49.310;8.646;2023-05-23T10:21:32;100671.53;;;25.50;46.74
19736;BME280;32064;49.310;8.646;2023-05-23T10:24:00;100674.50;;;25.62;47.36
19736;BME280;32064;49.310;8.646;2023-05-23T10:26:27;100662.88;;;25.54;47.50
19736;BME280;32064;49.310;8.646;2023-05-23T10:28:53;100664.97;;;25.59;46.89
19736;BME280;32064;49.310;8.646;2023-05-23T10:31:20;100667.78;;;25.79;46.67
19736;BME280;32064;49.310;8.646;2023-05-23T10:33:54;100666.09;;;26.33;46.34
19736;BME280;32064;49.310;8.646;2023-05-23T10:36:33;100665.53;;;27.10;44.92
19736;BME280;32064;49.310;8.646;2023-05-23T10:39:15;100659.72;;;26.94;45.66
19736;BME280;32064;49.310;8.646;2023-05-23T10:41:50;100656.81;;;26.82;43.66
19736;BME280;32064;49.310;8.646;2023-05-23T10:44:30;100661.75;;;26.45;45.96
19736;BME280;32064;49.310;8.646;2023-05-23T10:47:00;100677.19;;;25.96;46.62
19736;BME280;32064;49.310;8.646;2023-05-23T10:49:44;100671.31;;;25.45;47.69
19736;BME280;32064;49.310;8.646;2023-05-23T10:52:11;100673.06;;;25.24;47.74
19736;BME280;32064;49.310;8.646;2023-05-23T10:54:49;100671.50;;;24.87;48.69
19736;BME280;32064;49.310;8.646;2023-05-23T10:57:16;100674.03;;;24.67;49.13
19736;BME280;32064;49.310;8.646;2023-05-23T10:59:44;100677.66;;;24.59;48.38
19736;BME280;32064;49.310;8.646;2023-05-23T11:02:16;100674.66;;;24.48;49.11
19736;BME280;32064;49.310;8.646;2023-05-23T11:04:42;100678.31;;;24.61;49.19
19736;BME280;32064;49.310;8.646;2023-05-23T11:07:30;100685.34;;;24.62;49.74
19736;BME280;32064;49.310;8.646;2023-05-23T11:12:40;100683.56;;;24.48;49.24
19736;BME280;32064;49.310;8.646;2023-05-23T11:15:26;100681.94;;;24.32;50.51
19736;BME280;32064;49.310;8.646;2023-05-23T11:17:53;100685.00;;;24.29;49.69
19736;BME280;32064;49.310;8.646;2023-05-23T11:20:26;100686.50;;;24.32;50.45
19736;BME280;32064;49.310;8.646;2023-05-23T11:23:04;100683.81;;;24.32;50.85
19736;BME280;32064;49.310;8.646;2023-05-23T11:25:57;100695.38;;;24.32;50.89
19736;BME280;32064;49.310;8.646;2023-05-23T11:28:23;100688.16;;;24.33;50.84
19736;BME280;32064;49.310;8.646;2023-05-23T11:30:49;100689.91;;;24.26;51.53
19736;BME280;32064;49.310;8.646;2023-05-23T11:33:16;100695.19;;;24.34;50.62
19736;BME280;32064;49.310;8.646;2023-05-23T11:35:44;100691.06;;;24.53;51.02
19736;BME280;32064;49.310;8.646;2023-05-23T11:38:10;100688.69;;;24.86;50.56
19736;BME280;32064;49.310;8.646;2023-05-23T11:40:40;100691.91;;;25.24;49.88
19736;BME280;32064;49.310;8.646;2023-05-23T11:43:08;100688.34;;;25.45;49.77
19736;BME280;32064;49.310;8.646;2023-05-23T11:45:35;100693.34;;;25.20;49.93
19736;BME280;32064;49.310;8.646;2023-05-23T11:48:08;100692.00;;;24.88;49.92
19736;BME280;32064;49.310;8.646;2023-05-23T11:50:42;100691.78;;;24.83;50.12
19736;BME280;32064;49.310;8.646;2023-05-23T11:53:08;100689.78;;;24.70;50.07
19736;BME280;32064;49.310;8.646;2023-05-23T11:55:33;100694.53;;;24.47;50.09
19736;BME280;32064;49.310;8.646;2023-05-23T11:57:59;100688.97;;;24.33;51.26
19736;BME280;32064;49.310;8.646;2023-05-23T12:00:25;100687.06;;;24.27;50.35
19736;BME280;32064;49.310;8.646;2023-05-23T12:02:50;100680.25;;;24.10;50.41
19736;BME280;32064;49.310;8.646;2023-05-23T12:05:16;100686.00;;;24.07;50.53
19736;BME280;32064;49.310;8.646;2023-05-23T12:07:46;100681.38;;;24.01;50.40
19736;BME280;32064;49.310;8.646;2023-05-23T12:10:13;100684.84;;;24.16;51.52
19736;BME280;32064;49.310;8.646;2023-05-23T12:12:42;100683.59;;;24.33;50.98
19736;BME280;32064;49.310;8.646;2023-05-23T12:15:10;100683.78;;;24.47;51.23
19736;BME280;32064;49.310;8.646;2023-05-23T12:17:37;100682.81;;;24.39;50.33
19736;BME280;32064;49.310;8.646;2023-05-23T12:20:04;100682.81;;;24.54;50.73
19736;BME280;32064;49.310;8.646;2023-05-23T12:22:31;100673.38;;;24.86;49.81
19736;BME280;32064;49.310;8.646;2023-05-23T12:24:56;100675.06;;;25.16;49.29
19736;BME280;32064;49.310;8.646;2023-05-23T12:27:29;100676.47;;;25.40;49.25
19736;BME280;32064;49.310;8.646;2023-05-23T12:30:10;100671.63;;;25.63;49.08
19736;BME280;32064;49.310;8.646;2023-05-23T12:32:43;100665.59;;;26.03;46.83
19736;BME280;32064;49.310;8.646;2023-05-23T12:35:11;100664.22;;;26.47;46.81
19736;BME280;32064;49.310;8.646;2023-05-23T12:37:41;100665.13;;;26.54;46.27
19736;BME280;32064;49.310;8.646;2023-05-23T12:40:12;100660.03;;;26.24;46.63
19736;BME280;32064;49.310;8.646;2023-05-23T12:42:57;100666.09;;;25.78;47.31
19736;BME280;32064;49.310;8.646;2023-05-23T12:45:23;100671.31;;;25.45;47.80
19736;BME280;32064;49.310;8.646;2023-05-23T12:47:49;100677.97;;;24.93;48.67
19736;BME280;32064;49.310;8.646;2023-05-23T12:50:15;100671.25;;;24.82;49.96
19736;BME280;32064;49.310;8.646;2023-05-23T12:52:40;100670.31;;;24.47;50.33
19736;BME280;32064;49.310;8.646;2023-05-23T12:55:07;100674.81;;;24.25;50.95
19736;BME280;32064;49.310;8.646;2023-05-23T12:57:33;100672.50;;;24.22;50.59